createdAt,value
2023-04-02T00:00:06.055Z,77.51
2023-04-02T00:02:58.902Z,77.23
2023-04-02T00:05:51.646Z,77.26
2023-04-02T00:08:28.858Z,77.07
2023-04-02T00:11:03.064Z,76.86
2023-04-02T00:13:39.812Z,77.30
2023-04-02T00:16:14.826Z,77.14
2023-04-02T00:18:51.504Z,77.08
2023-04-02T00:21:28.002Z,76.95
2023-04-02T00:24:07.164Z,77.01
2023-04-02T00:26:43.588Z,76.98
2023-04-02T00:29:17.622Z,76.88
2023-04-02T00:31:52.199Z,77.02
2023-04-02T00:34:30.943Z,76.50
2023-04-02T00:37:05.043Z,76.88
2023-04-02T00:39:41.676Z,76.73
2023-04-02T00:42:18.599Z,76.60
2023-04-02T00:44:51.548Z,76.92
2023-04-02T00:47:27.539Z,76.63
2023-04-02T00:50:06.765Z,76.81
2023-04-02T00:52:43.317Z,76.49
2023-04-02T00:55:23.363Z,76.64
2023-04-02T00:57:58.728Z,76.98
2023-04-02T01:00:33.574Z,76.38
2023-04-02T01:03:35.210Z,76.63
2023-04-02T01:06:12.180Z,76.63
2023-04-02T01:08:56.629Z,76.78
2023-04-02T01:11:47.914Z,76.36
2023-04-02T01:14:37.143Z,76.07
2023-04-02T01:17:26.574Z,76.46
2023-04-02T01:20:44.005Z,76.77
2023-04-02T01:23:24.203Z,76.41
2023-04-02T01:26:05.307Z,76.50
2023-04-02T01:28:59.066Z,76.56
2023-04-02T01:31:33.984Z,76.20
2023-04-02T01:34:09.705Z,76.04
2023-04-02T01:36:54.085Z,76.48
2023-04-02T01:39:37.739Z,76.45
2023-04-02T01:42:18.957Z,76.16
2023-04-02T01:44:59.849Z,76.15
2023-04-02T01:47:33.705Z,76.02
2023-04-02T01:50:31.705Z,76.31
2023-04-02T01:53:08.219Z,76.63
2023-04-02T01:55:44.518Z,75.93
2023-04-02T01:58:20.746Z,75.95
2023-04-02T02:01:00.613Z,76.40
2023-04-02T02:03:34.505Z,76.28
2023-04-02T02:06:13.355Z,75.97
2023-04-02T02:08:49.881Z,76.28
2023-04-02T02:11:27.477Z,75.83
2023-04-02T02:14:01.799Z,75.95
2023-04-02T02:16:42.303Z,75.91
2023-04-02T02:19:24.545Z,75.71
2023-04-02T02:22:09.446Z,75.95
2023-04-02T02:24:42.667Z,76.17
2023-04-02T02:27:49.515Z,75.99
2023-04-02T02:30:27.646Z,75.88
2023-04-02T02:33:07.598Z,75.85
2023-04-02T02:35:45.601Z,75.72
2023-04-02T02:38:37.667Z,75.63
2023-04-02T02:41:22.766Z,76.34
2023-04-02T02:44:02.441Z,76.07
2023-04-02T02:46:38.229Z,75.83
2023-04-02T02:49:19.814Z,76.19
2023-04-02T02:51:58.981Z,76.01
2023-04-02T02:54:43.137Z,76.25
2023-04-02T02:57:21.243Z,76.08
2023-04-02T02:59:57.111Z,75.81
2023-04-02T03:02:30.246Z,75.83
2023-04-02T03:05:07.620Z,75.85
2023-04-02T03:07:41.432Z,75.61
2023-04-02T03:10:18.982Z,76.06
2023-04-02T03:12:56.968Z,76.21
2023-04-02T03:15:35.765Z,76.40
2023-04-02T03:18:15.246Z,75.81
2023-04-02T03:20:53.017Z,76.28
2023-04-02T03:23:32.886Z,76.41
2023-04-02T03:26:11.793Z,76.36
2023-04-02T03:28:50.487Z,75.88
2023-04-02T03:31:27.909Z,76.54
2023-04-02T03:34:06.826Z,76.34
2023-04-02T03:36:49.128Z,76.33
2023-04-02T03:39:29.432Z,75.79
2023-04-02T03:42:07.584Z,75.96
2023-04-02T03:44:48.520Z,76.00
2023-04-02T03:47:32.370Z,76.29
2023-04-02T03:50:08.135Z,76.22
2023-04-02T03:52:43.575Z,75.52
2023-04-02T03:55:22.396Z,76.01
2023-04-02T03:58:02.312Z,75.70
2023-04-02T04:00:39.655Z,75.69
2023-04-02T04:03:16.802Z,75.96
2023-04-02T04:05:53.895Z,75.68
2023-04-02T04:08:34.373Z,75.47
2023-04-02T04:11:11.154Z,75.63
2023-04-02T04:13:49.885Z,75.92
2023-04-02T04:16:28.817Z,75.33
2023-04-02T04:19:05.212Z,75.80
2023-04-02T04:21:40.470Z,75.67
2023-04-02T04:24:32.808Z,75.08
2023-04-02T04:27:18.701Z,75.73
2023-04-02T04:29:58.513Z,75.05
2023-04-02T04:32:34.523Z,75.02
2023-04-02T04:35:22.029Z,74.92
2023-04-02T04:37:59.432Z,74.74
2023-04-02T04:40:36.499Z,74.93
2023-04-02T04:43:18.310Z,75.12
2023-04-02T04:45:54.621Z,74.72
2023-04-02T04:48:36.653Z,75.07
2023-04-02T04:51:20.391Z,74.98
2023-04-02T04:53:55.875Z,75.09
2023-04-02T04:56:33.653Z,74.85
2023-04-02T04:59:21.535Z,74.51
2023-04-02T05:02:02.097Z,74.60
2023-04-02T05:04:38.298Z,74.43
2023-04-02T05:07:17.378Z,74.85
2023-04-02T05:09:58.256Z,75.00
2023-04-02T05:12:38.496Z,74.93
2023-04-02T05:15:20.887Z,74.94
2023-04-02T05:18:00.951Z,74.66
2023-04-02T05:20:41.375Z,74.88
2023-04-02T05:23:21.230Z,75.19
2023-04-02T05:26:06.777Z,75.21
2023-04-02T05:28:48.579Z,75.01
2023-04-02T05:31:27.189Z,74.77
2023-04-02T05:34:00.152Z,75.11
2023-04-02T05:36:33.285Z,74.92
2023-04-02T05:39:10.253Z,75.38
2023-04-02T05:42:00.110Z,74.97
2023-04-02T05:44:58.658Z,75.37
2023-04-02T05:47:33.522Z,75.51
2023-04-02T05:50:24.541Z,75.17
2023-04-02T05:53:04.206Z,75.25
2023-04-02T05:55:49.668Z,75.29
2023-04-02T05:58:36.330Z,75.18
2023-04-02T06:01:39.543Z,75.61
2023-04-02T06:04:24.044Z,75.85
2023-04-02T06:07:06.491Z,75.18
2023-04-02T06:09:44.021Z,75.96
2023-04-02T06:12:28.456Z,75.78
2023-04-02T06:15:01.361Z,75.46
2023-04-02T06:17:47.589Z,75.51
2023-04-02T06:20:21.429Z,75.59
2023-04-02T06:22:58.554Z,75.60
2023-04-02T06:25:37.236Z,76.02
2023-04-02T06:28:17.248Z,76.18
2023-04-02T06:31:01.697Z,76.20
2023-04-02T06:33:41.360Z,76.14
2023-04-02T06:36:14.681Z,75.25
2023-04-02T06:38:49.051Z,75.53
2023-04-02T06:41:23.766Z,75.48
2023-04-02T06:44:16.679Z,75.14
2023-04-02T06:47:26.391Z,74.93
2023-04-02T06:50:06.586Z,75.43
2023-04-02T06:52:45.141Z,75.44
2023-04-02T06:55:30.220Z,74.97
2023-04-02T06:58:03.404Z,74.89
2023-04-02T07:00:38.887Z,74.79
2023-04-02T07:03:17.003Z,75.36
2023-04-02T07:05:53.094Z,74.47
2023-04-02T07:08:26.150Z,74.28
2023-04-02T07:10:58.900Z,74.73
2023-04-02T07:13:32.655Z,74.21
2023-04-02T07:16:06.562Z,74.12
2023-04-02T07:18:39.936Z,74.00
2023-04-02T07:21:14.023Z,74.02
2023-04-02T07:23:48.321Z,73.74
2023-04-02T07:26:25.513Z,73.84
2023-04-02T07:28:58.272Z,73.86
2023-04-02T07:31:31.150Z,73.87
2023-04-02T07:34:05.218Z,73.96
2023-04-02T07:36:38.990Z,73.89
2023-04-02T07:39:12.718Z,73.97
2023-04-02T07:41:52.567Z,74.01
2023-04-02T07:44:25.889Z,73.84
2023-04-02T07:46:58.400Z,74.05
2023-04-02T07:49:31.466Z,73.82
2023-04-02T07:52:05.968Z,74.09
2023-04-02T07:54:38.870Z,74.02
2023-04-02T07:57:11.374Z,73.82
2023-04-02T07:59:47.083Z,73.69
2023-04-02T08:02:21.180Z,73.50
2023-04-02T08:04:54.469Z,73.83
2023-04-02T08:07:28.988Z,74.06
2023-04-02T08:10:02.419Z,73.73
2023-04-02T08:12:35.524Z,73.78
2023-04-02T08:15:11.086Z,73.65
2023-04-02T08:17:44.559Z,73.28
2023-04-02T08:20:19.617Z,72.72
2023-04-02T08:22:54.022Z,72.35
2023-04-02T08:25:27.842Z,72.25
2023-04-02T08:28:01.973Z,71.79
2023-04-02T08:30:34.449Z,71.94
2023-04-02T08:33:07.972Z,71.53
2023-04-02T08:35:40.865Z,71.47
2023-04-02T08:38:17.177Z,71.66
2023-04-02T08:40:55.138Z,71.73
2023-04-02T08:43:42.480Z,71.37
2023-04-02T08:46:22.010Z,70.35
2023-04-02T08:48:58.133Z,70.63
2023-04-02T08:51:34.445Z,70.88
2023-04-02T08:54:17.950Z,70.74
2023-04-02T08:56:56.466Z,70.16
2023-04-02T08:59:34.150Z,69.78
2023-04-02T09:02:26.639Z,69.78
2023-04-02T09:05:03.976Z,69.49
2023-04-02T09:07:37.128Z,69.23
2023-04-02T09:10:15.808Z,69.19
2023-04-02T09:12:52.845Z,68.79
2023-04-02T09:15:31.932Z,68.09
2023-04-02T09:18:15.274Z,68.46
2023-04-02T09:20:49.497Z,68.40
2023-04-02T09:23:24.714Z,68.01
2023-04-02T09:26:04.112Z,67.91
2023-04-02T09:28:38.401Z,68.23
2023-04-02T09:31:19.210Z,67.75
2023-04-02T09:33:55.127Z,67.63
2023-04-02T09:36:36.454Z,67.63
2023-04-02T09:39:18.099Z,66.81
2023-04-02T09:42:02.770Z,66.51
2023-04-02T09:44:38.410Z,66.40
2023-04-02T09:47:25.097Z,66.50
2023-04-02T09:50:14.239Z,66.54
2023-04-02T09:52:47.096Z,66.30
2023-04-02T09:55:25.600Z,65.74
2023-04-02T09:58:13.174Z,66.24
2023-04-02T10:00:53.504Z,65.85
2023-04-02T10:03:28.165Z,65.70
2023-04-02T10:06:10.705Z,65.56
2023-04-02T10:08:45.042Z,65.22
2023-04-02T10:11:22.271Z,64.35
2023-04-02T10:13:59.189Z,64.74
2023-04-02T10:16:35.388Z,64.23
2023-04-02T10:19:22.406Z,63.03
2023-04-02T10:21:57.089Z,63.65
2023-04-02T10:24:29.864Z,63.08
2023-04-02T10:27:18.016Z,63.00
2023-04-02T10:30:02.814Z,62.98
2023-04-02T10:32:42.971Z,62.65
2023-04-02T10:35:24.754Z,62.79
2023-04-02T10:38:14.115Z,62.51
2023-04-02T10:40:49.497Z,62.55
2023-04-02T10:43:43.889Z,63.08
2023-04-02T10:46:25.670Z,61.95
2023-04-02T10:49:14.151Z,62.31
2023-04-02T10:51:55.630Z,62.18
2023-04-02T10:54:39.799Z,62.18
2023-04-02T10:57:26.143Z,62.24
2023-04-02T11:00:16.908Z,61.44
2023-04-02T11:02:57.253Z,60.98
2023-04-02T11:05:40.557Z,60.90
2023-04-02T11:08:20.794Z,60.96
2023-04-02T11:10:59.492Z,60.57
2023-04-02T11:13:37.282Z,60.36
2023-04-02T11:16:15.276Z,60.77
2023-04-02T11:19:21.869Z,61.73
2023-04-02T11:22:00.319Z,61.24
2023-04-02T11:24:44.682Z,60.99
2023-04-02T11:27:26.041Z,61.13
2023-04-02T11:30:05.920Z,60.97
2023-04-02T11:32:40.332Z,60.97
2023-04-02T11:35:35.957Z,61.11
2023-04-02T11:38:52.240Z,61.41
2023-04-02T11:42:03.620Z,60.74
2023-04-02T11:44:36.125Z,60.60
2023-04-02T11:47:21.059Z,60.62
2023-04-02T11:50:04.519Z,60.35
2023-04-02T11:52:52.805Z,60.98
2023-04-02T11:55:29.044Z,60.34
2023-04-02T11:58:30.208Z,60.96
2023-04-02T12:01:30.977Z,60.58
2023-04-02T12:04:44.384Z,59.95
2023-04-02T12:07:35.164Z,59.66
2023-04-02T12:10:18.384Z,59.85
2023-04-02T12:12:53.734Z,59.36
2023-04-02T12:15:44.740Z,60.10
2023-04-02T12:18:20.969Z,59.02
2023-04-02T12:20:56.169Z,59.91
2023-04-02T12:23:31.486Z,59.20
2023-04-02T12:26:07.436Z,59.30
2023-04-02T12:28:42.561Z,59.33
2023-04-02T12:31:19.717Z,59.55
2023-04-02T12:33:53.583Z,59.52
2023-04-02T12:36:26.339Z,58.97
2023-04-02T12:38:59.135Z,59.47
2023-04-02T12:41:37.041Z,58.72
2023-04-02T12:44:18.646Z,58.99
2023-04-02T12:46:52.878Z,59.29
2023-04-02T12:49:37.251Z,59.39
2023-04-02T12:52:13.247Z,59.49
2023-04-02T12:54:48.590Z,58.99
2023-04-02T12:57:32.819Z,59.16
2023-04-02T13:00:32.227Z,59.90
2023-04-02T13:03:21.394Z,59.56
2023-04-02T13:05:55.728Z,59.26
2023-04-02T13:08:31.267Z,59.36
2023-04-02T13:11:06.477Z,59.01
2023-04-02T13:13:43.805Z,58.94
2023-04-02T13:16:29.286Z,59.66
2023-04-02T13:19:22.918Z,59.99
2023-04-02T13:21:58.054Z,60.07
2023-04-02T13:24:33.026Z,59.97
2023-04-02T13:27:10.473Z,60.58
2023-04-02T13:29:44.268Z,60.11
2023-04-02T13:32:17.787Z,60.34
2023-04-02T13:34:50.332Z,60.48
2023-04-02T13:37:23.350Z,60.11
2023-04-02T13:39:57.283Z,60.05
2023-04-02T13:42:30.161Z,60.20
2023-04-02T13:45:05.336Z,60.73
2023-04-02T13:47:40.583Z,60.45
2023-04-02T13:50:17.671Z,60.71
2023-04-02T13:52:52.983Z,61.07
2023-04-02T13:55:30.678Z,61.23
2023-04-02T13:58:04.093Z,61.43
2023-04-02T14:00:38.197Z,61.41
2023-04-02T14:03:14.672Z,61.06
2023-04-02T14:05:57.191Z,61.69
2023-04-02T14:08:43.172Z,61.12
2023-04-02T14:11:34.098Z,62.07
2023-04-02T14:14:22.128Z,61.94
2023-04-02T14:17:10.057Z,61.89
2023-04-02T14:19:54.237Z,61.84
2023-04-02T14:22:38.839Z,61.92
2023-04-02T14:25:20.546Z,62.15
2023-04-02T14:28:02.640Z,61.81
2023-04-02T14:30:48.738Z,61.74
2023-04-02T14:33:35.757Z,62.28
2023-04-02T14:36:16.844Z,62.19
2023-04-02T14:38:57.926Z,62.47
2023-04-02T14:41:37.407Z,62.79
2023-04-02T14:44:12.621Z,62.92
2023-04-02T14:46:47.292Z,62.91
2023-04-02T14:49:26.602Z,63.13
2023-04-02T14:52:04.634Z,63.52
2023-04-02T14:54:40.541Z,63.88
2023-04-02T14:57:21.977Z,63.95
2023-04-02T15:00:04.225Z,63.88
2023-04-02T15:02:42.957Z,63.82
2023-04-02T15:05:21.389Z,64.17
2023-04-02T15:07:58.339Z,63.94
2023-04-02T15:10:34.248Z,64.46
2023-04-02T15:13:17.931Z,64.17
2023-04-02T15:15:56.628Z,64.18
2023-04-02T15:18:30.490Z,64.07
2023-04-02T15:21:56.040Z,64.44
2023-04-02T15:24:38.282Z,64.81
2023-04-02T15:27:26.157Z,64.49
2023-04-02T15:30:07.622Z,64.91
2023-04-02T15:32:42.327Z,64.66
2023-04-02T15:35:36.367Z,64.90
2023-04-02T15:38:16.763Z,64.88
2023-04-02T15:40:57.718Z,65.27
2023-04-02T15:43:37.821Z,64.85
2023-04-02T15:46:22.022Z,65.43
2023-04-02T15:49:18.603Z,65.14
2023-04-02T15:51:59.902Z,65.39
2023-04-02T15:54:54.355Z,65.33
2023-04-02T15:57:46.024Z,65.70
2023-04-02T16:00:28.322Z,65.92
2023-04-02T16:03:33.274Z,65.95
2023-04-02T16:06:17.503Z,65.60
2023-04-02T16:09:00.437Z,66.04
2023-04-02T16:11:34.878Z,66.31
2023-04-02T16:14:22.766Z,66.86
2023-04-02T16:17:03.833Z,67.39
2023-04-02T16:19:45.669Z,66.50
2023-04-02T16:22:25.137Z,67.26
2023-04-02T16:25:01.576Z,67.16
2023-04-02T16:27:43.371Z,67.43
2023-04-02T16:30:36.365Z,67.13
2023-04-02T16:33:37.983Z,67.24
2023-04-02T16:36:22.864Z,67.61
2023-04-02T16:39:01.535Z,67.71
2023-04-02T16:41:51.606Z,67.94
2023-04-02T16:44:36.821Z,67.52
2023-04-02T16:47:23.774Z,67.88
2023-04-02T16:50:03.935Z,67.38
2023-04-02T16:52:51.604Z,68.08
2023-04-02T16:55:35.874Z,67.93
2023-04-02T16:58:23.683Z,67.95
2023-04-02T17:01:05.999Z,68.28
2023-04-02T17:03:52.374Z,68.33
2023-04-02T17:06:40.544Z,68.51
2023-04-02T17:09:16.988Z,69.06
2023-04-02T17:11:53.311Z,68.81
2023-04-02T17:14:32.866Z,68.38
2023-04-02T17:17:11.867Z,68.93
2023-04-02T17:19:45.005Z,68.38
2023-04-02T17:22:21.984Z,68.73
2023-04-02T17:24:57.706Z,68.64
2023-04-02T17:27:35.591Z,68.87
2023-04-02T17:30:16.824Z,68.82
2023-04-02T17:32:51.845Z,69.38
2023-04-02T17:35:40.729Z,69.05
2023-04-02T17:38:21.900Z,69.65
2023-04-02T17:41:02.671Z,69.61
2023-04-02T17:43:46.583Z,69.55
2023-04-02T17:46:30.039Z,70.06
2023-04-02T17:49:17.310Z,69.58
2023-04-02T17:51:55.413Z,70.00
2023-04-02T17:54:44.090Z,70.42
2023-04-02T17:57:31.011Z,70.71
2023-04-02T18:00:18.096Z,70.47
2023-04-02T18:03:13.312Z,70.72
2023-04-02T18:05:55.396Z,71.04
2023-04-02T18:08:39.231Z,71.17
2023-04-02T18:11:23.046Z,70.98
2023-04-02T18:13:59.786Z,71.56
2023-04-02T18:16:46.923Z,71.25
2023-04-02T18:19:26.687Z,71.42
2023-04-02T18:22:14.005Z,71.81
2023-04-02T18:25:14.939Z,72.02
2023-04-02T18:28:03.121Z,72.07
2023-04-02T18:30:41.097Z,72.03
2023-04-02T18:33:31.807Z,71.94
2023-04-02T18:36:10.300Z,72.21
2023-04-02T18:38:52.473Z,71.77
2023-04-02T18:41:46.293Z,71.60
2023-04-02T18:44:42.004Z,71.60
2023-04-02T18:47:23.360Z,72.13
2023-04-02T18:50:05.858Z,72.53
2023-04-02T18:52:40.271Z,72.97
2023-04-02T18:55:18.442Z,72.37
2023-04-02T18:57:56.694Z,72.55
2023-04-02T19:00:31.313Z,72.64
2023-04-02T19:03:07.973Z,72.96
2023-04-02T19:05:46.334Z,73.13
2023-04-02T19:08:24.463Z,73.02
2023-04-02T19:11:03.772Z,73.25
2023-04-02T19:13:44.732Z,73.25
2023-04-02T19:16:44.601Z,73.60
2023-04-02T19:19:21.595Z,73.64
2023-04-02T19:22:11.187Z,73.42
2023-04-02T19:25:19.364Z,73.50
2023-04-02T19:28:12.204Z,73.48
2023-04-02T19:31:08.729Z,73.81
2023-04-02T19:33:48.477Z,73.96
2023-04-02T19:36:36.349Z,73.71
2023-04-02T19:39:38.822Z,73.81
2023-04-02T19:42:19.912Z,74.01
2023-04-02T19:44:55.180Z,73.94
2023-04-02T19:47:28.537Z,74.07
2023-04-02T19:50:01.134Z,73.92
2023-04-02T19:52:35.641Z,73.88
2023-04-02T19:55:09.193Z,74.06
2023-04-02T19:57:41.954Z,74.16
2023-04-02T20:00:17.761Z,74.10
2023-04-02T20:02:50.643Z,73.95
2023-04-02T20:05:42.272Z,74.04
2023-04-02T20:08:15.387Z,74.17
2023-04-02T20:10:48.295Z,74.17
2023-04-02T20:13:21.220Z,74.16
2023-04-02T20:15:59.146Z,74.05
2023-04-02T20:18:32.550Z,74.15
2023-04-02T20:21:15.573Z,74.04
2023-04-02T20:23:53.162Z,74.14
2023-04-02T20:26:27.814Z,74.18
2023-04-02T20:29:00.758Z,74.38
2023-04-02T20:31:35.617Z,74.13
2023-04-02T20:34:10.508Z,74.06
2023-04-02T20:36:43.850Z,74.11
2023-04-02T20:39:20.023Z,74.43
2023-04-02T20:41:52.608Z,74.28
2023-04-02T20:44:25.666Z,74.05
2023-04-02T20:46:59.566Z,74.30
2023-04-02T20:49:32.954Z,74.31
2023-04-02T20:52:05.954Z,74.13
2023-04-02T20:54:39.214Z,74.34
2023-04-02T20:57:11.806Z,74.18
2023-04-02T20:59:45.176Z,74.45
2023-04-02T21:02:19.418Z,74.34
2023-04-02T21:04:52.961Z,74.41
2023-04-02T21:07:26.238Z,74.66
2023-04-02T21:09:59.416Z,74.48
2023-04-02T21:12:32.013Z,74.41
2023-04-02T21:15:05.847Z,74.30
2023-04-02T21:17:39.807Z,73.98
2023-04-02T21:20:13.492Z,73.81
2023-04-02T21:22:46.718Z,73.68
2023-04-02T21:25:20.260Z,73.79
2023-04-02T21:27:53.448Z,73.70
2023-04-02T21:30:26.418Z,73.91
2023-04-02T21:33:01.146Z,74.08
2023-04-02T21:35:34.455Z,74.31
2023-04-02T21:38:07.894Z,73.59
2023-04-02T21:40:40.385Z,73.79
2023-04-02T21:43:13.639Z,74.05
2023-04-02T21:45:46.187Z,73.67
2023-04-02T21:48:20.956Z,73.48
2023-04-02T21:50:53.957Z,73.50
2023-04-02T21:53:27.145Z,73.75
2023-04-02T21:56:04.155Z,73.60
2023-04-02T21:58:36.929Z,73.41
2023-04-02T22:01:16.910Z,73.27
2023-04-02T22:04:01.096Z,72.91
2023-04-02T22:06:37.781Z,72.74
2023-04-02T22:09:13.108Z,72.88
2023-04-02T22:11:47.663Z,72.61
2023-04-02T22:14:21.280Z,72.95
2023-04-02T22:16:53.938Z,73.36
2023-04-02T22:19:28.935Z,73.16
2023-04-02T22:22:01.795Z,73.11
2023-04-02T22:24:35.303Z,73.27
2023-04-02T22:27:08.270Z,73.21
2023-04-02T22:29:41.615Z,73.52
2023-04-02T22:32:14.583Z,73.27
2023-04-02T22:34:49.364Z,73.14
2023-04-02T22:37:22.015Z,73.37
2023-04-02T22:39:55.714Z,73.29
2023-04-02T22:42:28.707Z,73.20
2023-04-02T22:45:04.425Z,73.26
2023-04-02T22:47:37.410Z,73.26
2023-04-02T22:50:12.390Z,73.28
2023-04-02T22:52:45.788Z,73.64
2023-04-02T22:55:18.935Z,73.55
2023-04-02T22:57:51.722Z,73.38
2023-04-02T23:00:25.649Z,73.58
2023-04-02T23:02:58.409Z,73.67
2023-04-02T23:05:32.874Z,73.05
2023-04-02T23:08:07.111Z,73.23
2023-04-02T23:10:40.009Z,73.02
2023-04-02T23:13:12.905Z,72.72
2023-04-02T23:15:46.254Z,72.83
2023-04-02T23:18:18.778Z,72.57
2023-04-02T23:20:55.020Z,72.88
2023-04-02T23:23:28.488Z,73.05
2023-04-02T23:26:06.749Z,72.68
2023-04-02T23:28:40.177Z,73.04
2023-04-02T23:31:15.488Z,73.45
2023-04-02T23:33:48.534Z,73.22
2023-04-02T23:36:24.966Z,73.34
2023-04-02T23:39:01.834Z,73.19
2023-04-02T23:41:34.545Z,73.21
2023-04-02T23:44:09.153Z,73.43
2023-04-02T23:46:41.937Z,73.43
2023-04-02T23:49:14.654Z,73.17
2023-04-02T23:51:48.895Z,73.52
2023-04-02T23:54:22.577Z,73.50
2023-04-02T23:56:55.007Z,73.60
2023-04-02T23:59:27.874Z,73.64
